Time;durP1;ratioP1;P1;durP2;ratioP2;P2;SDS_P1;SDS_P2;PMS_P1;PMS_P2;Temp;Humidity;BMP_temperature;BMP_pressure;BME280_temperature;BME280_humidity;BME280_pressure;Samples;Min_cycle;Max_cycle;Signal;HPM_P1;HPM_P2
2021/12/29 00:01:57;;;;;;;19.52;6.32;;;;;;;8.55;100.00;100258.00;5273504;28;20071;-73
2021/12/29 00:04:28;;;;;;;16.33;6.70;;;;;;;8.47;100.00;100258.81;5271550;28;20034;-74
2021/12/29 00:06:59;;;;;;;17.73;6.70;;;;;;;8.51;100.00;100275.38;5276503;28;20458;-74
2021/12/29 00:09:33;;;;;;;18.70;6.18;;;;;;;8.52;100.00;100272.53;5278642;28;20038;-74
2021/12/29 00:12:04;;;;;;;16.65;6.30;;;;;;;8.49;100.00;100283.56;5280295;28;20069;-74
2021/12/29 00:14:36;;;;;;;13.23;5.80;;;;;;;8.49;100.00;100299.63;5284997;27;20111;-74
2021/12/29 00:17:07;;;;;;;20.05;6.00;;;;;;;8.51;100.00;100313.63;5274622;28;20110;-75
2021/12/29 00:19:37;;;;;;;11.00;4.75;;;;;;;8.51;100.00;100318.16;5287306;28;20023;-74
2021/12/29 00:22:08;;;;;;;10.75;5.15;;;;;;;8.53;100.00;100317.00;5267580;28;20016;-75
2021/12/29 00:24:38;;;;;;;17.58;5.22;;;;;;;8.51;100.00;100324.34;5263959;28;20087;-75
2021/12/29 00:27:10;;;;;;;12.27;4.95;;;;;;;8.51;100.00;100329.69;5284142;28;20019;-74
2021/12/29 00:29:40;;;;;;;12.23;5.20;;;;;;;8.50;100.00;100328.03;5286979;27;20024;-74
2021/12/29 00:32:11;;;;;;;9.50;5.00;;;;;;;8.47;100.00;100323.00;5266615;27;20016;-74
2021/12/29 00:34:41;;;;;;;10.80;5.13;;;;;;;8.51;100.00;100328.84;5266781;28;20136;-74
2021/12/29 00:37:12;;;;;;;14.40;5.05;;;;;;;8.49;100.00;100329.03;5288778;28;20015;-74
2021/12/29 00:39:42;;;;;;;15.75;4.90;;;;;;;8.50;100.00;100329.84;5274060;28;20392;-74
2021/12/29 00:42:13;;;;;;;13.88;5.85;;;;;;;8.49;100.00;100331.69;5278584;27;20081;-74
2021/12/29 00:44:43;;;;;;;12.52;4.82;;;;;;;8.47;100.00;100335.53;5281615;28;20022;-74
2021/12/29 00:47:14;;;;;;;13.10;5.60;;;;;;;8.46;100.00;100347.22;5285820;27;20023;-74
2021/12/29 00:49:46;;;;;;;12.23;4.72;;;;;;;8.53;100.00;100353.56;5279533;28;20027;-74
2021/12/29 00:52:17;;;;;;;13.95;5.90;;;;;;;8.51;100.00;100368.94;5267550;28;20046;-75
2021/12/29 00:54:47;;;;;;;13.25;5.65;;;;;;;8.56;100.00;100375.47;5271379;28;20514;-75
2021/12/29 00:57:18;;;;;;;11.75;5.15;;;;;;;8.56;100.00;100364.78;5272499;28;20162;-75
2021/12/29 00:59:48;;;;;;;13.88;5.32;;;;;;;8.51;100.00;100364.44;5276923;28;20020;-75
2021/12/29 01:02:19;;;;;;;12.70;5.05;;;;;;;8.58;100.00;100359.25;5280493;28;20016;-75
2021/12/29 01:04:49;;;;;;;14.38;5.10;;;;;;;8.52;100.00;100358.09;5286040;28;20031;-75
2021/12/29 01:07:20;;;;;;;11.80;5.05;;;;;;;8.55;100.00;100364.97;5282232;27;20018;-75
2021/12/29 01:09:50;;;;;;;12.75;4.78;;;;;;;8.50;100.00;100383.31;5275718;28;20500;-75
2021/12/29 01:12:22;;;;;;;12.05;4.78;;;;;;;8.47;100.00;100392.50;5281258;28;20096;-74
2021/12/29 01:14:54;;;;;;;14.10;5.93;;;;;;;8.44;100.00;100400.03;5263142;28;20027;-74
2021/12/29 01:17:24;;;;;;;10.93;5.78;;;;;;;8.43;100.00;100409.03;5283997;28;20078;-74
2021/12/29 01:19:56;;;;;;;13.18;5.28;;;;;;;8.48;100.00;100414.72;5282984;28;20055;-74
2021/12/29 01:22:27;;;;;;;10.35;5.57;;;;;;;8.47;100.00;100413.03;5263625;28;20028;-73
2021/12/29 01:24:57;;;;;;;11.07;4.80;;;;;;;8.43;100.00;100412.53;5279076;28;20364;-74
2021/12/29 01:27:28;;;;;;;14.23;5.45;;;;;;;8.41;100.00;100419.88;5275497;28;20104;-74
2021/12/29 01:29:59;;;;;;;14.40;6.15;;;;;;;8.43;100.00;100433.91;5280315;28;20074;-75
2021/12/29 01:32:29;;;;;;;13.57;4.93;;;;;;;8.45;100.00;100439.13;5285283;28;20020;-74
2021/12/29 01:34:59;;;;;;;13.50;4.82;;;;;;;8.41;100.00;100440.44;5271474;28;20548;-74
2021/12/29 01:37:30;;;;;;;12.07;5.07;;;;;;;8.39;100.00;100439.78;5272633;28;20027;-75
2021/12/29 01:40:04;;;;;;;12.18;4.75;;;;;;;8.40;100.00;100450.28;5263665;28;20064;-74
2021/12/29 01:42:34;;;;;;;15.55;4.75;;;;;;;8.38;100.00;100456.78;5277386;28;20312;-74
2021/12/29 01:45:05;;;;;;;9.68;4.57;;;;;;;8.36;100.00;100454.28;5271317;28;20103;-74
2021/12/29 01:47:37;;;;;;;8.90;4.78;;;;;;;8.37;100.00;100463.97;5285523;28;20019;-74
2021/12/29 01:50:09;;;;;;;15.27;4.50;;;;;;;8.35;100.00;100463.28;5279547;28;20027;-75
2021/12/29 01:52:41;;;;;;;15.70;5.88;;;;;;;8.35;100.00;100471.28;5271234;28;20032;-74
2021/12/29 01:55:14;;;;;;;12.95;4.88;;;;;;;8.35;100.00;100473.13;5276936;28;20019;-74
2021/12/29 01:57:45;;;;;;;12.82;4.93;;;;;;;8.34;100.00;100474.97;5274801;28;20419;-74
2021/12/29 02:00:19;;;;;;;9.00;4.93;;;;;;;8.33;100.00;100475.94;5275449;28;20161;-74
2021/12/29 02:02:49;;;;;;;10.55;5.55;;;;;;;8.32;100.00;100480.44;5288083;28;20015;-74
2021/12/29 02:05:21;;;;;;;13.70;5.07;;;;;;;8.32;100.00;100471.59;5274201;28;20115;-73
2021/12/29 02:07:52;;;;;;;13.43;5.10;;;;;;;8.31;100.00;100480.63;5273545;28;20024;-74
2021/12/29 02:10:41;;;;;;;11.52;5.05;;;;;;;8.31;100.00;100483.28;5286446;28;20036;-75
2021/12/29 02:13:30;;;;;;;12.55;5.03;;;;;;;8.38;100.00;100486.19;5287912;28;20073;-74
2021/12/29 02:16:04;;;;;;;11.13;4.75;;;;;;;8.38;100.00;100481.69;5268072;28;20031;-74
2021/12/29 02:18:37;;;;;;;14.15;4.70;;;;;;;8.38;100.00;100479.00;5281168;28;20351;-74
2021/12/29 02:21:09;;;;;;;13.20;4.45;;;;;;;8.35;100.00;100487.34;5277731;28;20071;-75
2021/12/29 02:23:55;;;;;;;19.02;5.10;;;;;;;8.30;100.00;100495.81;5274811;28;20073;-75
2021/12/29 02:26:27;;;;;;;14.93;4.97;;;;;;;8.29;100.00;100493.31;5287839;28;20354;-74
2021/12/29 02:29:01;;;;;;;11.63;4.15;;;;;;;8.26;100.00;100494.47;5275361;28;20030;-75
2021/12/29 02:31:32;;;;;;;11.13;4.78;;;;;;;8.27;100.00;100495.31;5285450;28;20028;-75
2021/12/29 02:34:03;;;;;;;12.52;4.88;;;;;;;8.27;100.00;100493.47;5267084;28;20027;-75
2021/12/29 02:36:34;;;;;;;11.45;4.72;;;;;;;8.29;100.00;100499.50;5280496;28;20091;-75
2021/12/29 02:39:05;;;;;;;14.57;5.03;;;;;;;8.30;100.00;100505.69;5266635;28;20047;-74
2021/12/29 02:41:40;;;;;;;10.07;5.53;;;;;;;8.31;100.00;100502.84;5272215;28;20031;-74
2021/12/29 02:44:17;;;;;;;15.75;4.45;;;;;;;8.39;100.00;100507.44;5274008;28;20024;-74
2021/12/29 02:46:48;;;;;;;9.65;5.00;;;;;;;8.40;100.00;100506.44;5274634;28;20023;-74
2021/12/29 02:49:19;;;;;;;8.80;4.88;;;;;;;8.42;100.00;100508.94;5273801;27;20107;-73
2021/12/29 02:51:50;;;;;;;10.30;4.72;;;;;;;8.40;100.00;100506.44;5283743;28;20015;-74
2021/12/29 02:54:21;;;;;;;13.95;5.68;;;;;;;8.39;100.00;100507.44;5273803;28;20476;-74
2021/12/29 02:56:54;;;;;;;12.13;5.05;;;;;;;8.39;100.00;100501.25;5276783;28;20043;-74
2021/12/29 02:59:25;;;;;;;20.02;5.78;;;;;;;8.44;100.00;100507.78;5278926;28;20435;-75
2021/12/29 03:01:56;;;;;;;9.93;4.45;;;;;;;8.44;100.00;100515.81;5266268;28;20030;-74
2021/12/29 03:04:26;;;;;;;11.30;5.38;;;;;;;8.46;100.00;100518.31;5284960;28;20027;-75
2021/12/29 03:06:57;;;;;;;9.57;4.95;;;;;;;8.42;100.00;100516.94;5286130;28;20098;-74
2021/12/29 03:09:28;;;;;;;10.65;4.88;;;;;;;8.42;100.00;100523.13;5274307;28;20035;-75
2021/12/29 03:11:58;;;;;;;10.77;4.45;;;;;;;8.42;100.00;100527.66;5286602;27;20051;-74
2021/12/29 03:14:29;;;;;;;11.95;4.63;;;;;;;8.45;100.00;100543.38;5287018;27;20027;-74
2021/12/29 03:16:59;;;;;;;12.02;4.72;;;;;;;8.48;100.00;100546.56;5286933;28;20384;-74
2021/12/29 03:19:30;;;;;;;18.90;5.68;;;;;;;8.53;100.00;100544.25;5276222;28;20028;-74
2021/12/29 03:22:00;;;;;;;8.88;5.00;;;;;;;8.51;100.00;100546.25;5279317;28;20428;-74
2021/12/29 03:24:31;;;;;;;9.10;5.15;;;;;;;8.51;100.00;100551.59;5276866;28;20023;-74
2021/12/29 03:27:01;;;;;;;11.65;5.28;;;;;;;8.48;100.00;100554.59;5267757;28;20399;-74
2021/12/29 03:29:32;;;;;;;12.02;5.03;;;;;;;8.47;100.00;100546.72;5278448;28;20035;-74
2021/12/29 03:32:07;;;;;;;10.50;5.57;;;;;;;8.49;100.00;100556.28;5272821;27;20168;-74
2021/12/29 03:34:38;;;;;;;14.18;5.82;;;;;;;8.49;100.00;100558.94;5286523;28;20020;-74
2021/12/29 03:37:08;;;;;;;11.00;5.38;;;;;;;8.50;100.00;100560.59;5287281;28;20031;-74
2021/12/29 03:39:39;;;;;;;11.52;5.15;;;;;;;8.56;100.00;100562.63;5278059;28;20256;-74
2021/12/29 03:42:09;;;;;;;17.77;5.97;;;;;;;8.53;100.00;100567.47;5265649;28;20465;-74
2021/12/29 03:44:40;;;;;;;15.88;5.78;;;;;;;8.51;100.00;100572.97;5282442;28;20026;-74
2021/12/29 03:47:10;;;;;;;13.85;6.20;;;;;;;8.50;100.00;100563.28;5286135;28;20165;-74
2021/12/29 03:49:41;;;;;;;12.40;5.80;;;;;;;8.51;100.00;100569.47;5286408;28;20031;-74
2021/12/29 03:52:11;;;;;;;19.92;6.18;;;;;;;8.49;100.00;100555.44;5277875;28;20397;-74
2021/12/29 03:54:42;;;;;;;21.25;6.10;;;;;;;8.47;100.00;100562.75;5272069;28;20019;-74
2021/12/29 03:57:12;;;;;;;15.43;6.15;;;;;;;8.50;100.00;100565.13;5286266;28;20023;-74
2021/12/29 03:59:43;;;;;;;12.82;5.60;;;;;;;8.47;100.00;100568.94;5277688;28;20043;-75
2021/12/29 04:02:13;;;;;;;16.02;6.07;;;;;;;8.47;100.00;100570.78;5267124;28;20115;-74
2021/12/29 04:04:44;;;;;;;19.35;6.53;;;;;;;8.47;100.00;100566.25;5276518;28;20024;-74
2021/12/29 04:07:14;;;;;;;13.25;5.25;;;;;;;8.45;100.00;100557.56;5282032;28;20184;-74
2021/12/29 04:09:45;;;;;;;12.05;5.47;;;;;;;8.45;100.00;100562.94;5275053;28;20024;-74
2021/12/29 04:12:15;;;;;;;16.42;5.90;;;;;;;8.48;100.00;100565.28;5263626;28;20036;-74
2021/12/29 04:14:46;;;;;;;15.65;6.43;;;;;;;8.45;100.00;100573.63;5264722;28;20093;-74
2021/12/29 04:17:18;;;;;;;15.43;5.70;;;;;;;8.46;100.00;100574.44;5278291;28;20388;-74
2021/12/29 04:22:38;;;;;;;13.93;6.10;;;;;;;8.49;100.00;100595.53;5275298;28;20016;-75
2021/12/29 04:25:08;;;;;;;17.38;6.75;;;;;;;8.47;100.00;100589.50;5278339;28;20051;-75
2021/12/29 04:27:39;;;;;;;13.10;6.10;;;;;;;8.43;100.00;100583.63;5263178;28;20035;-75
2021/12/29 04:30:09;;;;;;;10.60;5.45;;;;;;;8.42;100.00;100594.47;5283742;28;20023;-75
2021/12/29 04:32:40;;;;;;;9.98;5.43;;;;;;;8.41;100.00;100593.63;5272822;28;20039;-75
2021/12/29 04:35:11;;;;;;;8.75;4.78;;;;;;;8.40;100.00;100589.28;5277809;28;20468;-75
2021/12/29 04:37:41;;;;;;;11.45;5.50;;;;;;;8.37;100.00;100584.25;5278374;28;20098;-74
2021/12/29 04:40:13;;;;;;;11.55;5.20;;;;;;;8.40;100.00;100594.66;5279855;28;20106;-74
2021/12/29 04:42:43;;;;;;;8.52;5.20;;;;;;;8.38;100.00;100591.28;5271771;28;20031;-74
2021/12/29 04:45:15;;;;;;;11.57;5.50;;;;;;;8.37;100.00;100589.59;5275928;28;20024;-75
2021/12/29 04:47:48;;;;;;;15.77;5.45;;;;;;;8.34;100.00;100592.56;5280273;28;20091;-76
2021/12/29 04:53:10;;;;;;;11.20;6.68;;;;;;;8.38;100.00;100609.16;5272924;28;20076;-75
2021/12/29 04:55:45;;;;;;;9.57;5.65;;;;;;;8.37;100.00;100607.47;5277572;28;20032;-75
2021/12/29 04:58:18;;;;;;;18.17;11.48;;;;;;;8.38;100.00;100609.16;5263538;28;20426;-76
2021/12/29 05:00:51;;;;;;;14.57;6.90;;;;;;;8.34;100.00;100608.63;5275898;28;20028;-75
2021/12/29 05:03:21;;;;;;;13.00;7.53;;;;;;;8.30;100.00;100618.78;5274145;28;20047;-76
2021/12/29 05:05:54;;;;;;;11.77;5.10;;;;;;;8.30;100.00;100621.44;5279335;27;20433;-76
2021/12/29 05:08:25;;;;;;;12.73;6.13;;;;;;;8.35;100.00;100618.31;5266123;28;20507;-76
2021/12/29 05:10:58;;;;;;;10.73;6.40;;;;;;;8.28;100.00;100609.22;5263340;28;20040;-75
2021/12/29 05:13:31;;;;;;;15.85;10.00;;;;;;;8.26;100.00;100616.56;5277233;28;20510;-75
2021/12/29 05:16:02;;;;;;;17.02;5.95;;;;;;;8.21;100.00;100624.22;5271814;28;20495;-75
2021/12/29 05:18:34;;;;;;;18.13;9.00;;;;;;;8.45;100.00;100620.91;5270760;28;20020;-75
2021/12/29 05:21:07;;;;;;;20.20;12.68;;;;;;;8.51;100.00;100625.63;5274210;27;20400;-75
2021/12/29 05:23:37;;;;;;;14.48;6.60;;;;;;;8.49;100.00;100623.09;5276985;28;20028;-75
2021/12/29 05:26:08;;;;;;;10.18;6.63;;;;;;;8.46;100.00;100615.38;5275108;28;20030;-75
2021/12/29 05:28:38;;;;;;;28.65;16.02;;;;;;;8.49;100.00;100616.94;5284386;28;20114;-74
2021/12/29 05:31:09;;;;;;;10.85;6.70;;;;;;;8.50;100.00;100621.28;5284234;28;20337;-75
2021/12/29 05:33:40;;;;;;;16.58;10.05;;;;;;;8.50;100.00;100630.13;5264171;28;20508;-74
2021/12/29 05:36:10;;;;;;;15.57;8.50;;;;;;;8.51;100.00;100631.78;5263267;28;20028;-75
2021/12/29 05:38:41;;;;;;;92.05;45.33;;;;;;;8.48;100.00;100639.28;5276480;28;20027;-75
2021/12/29 05:41:11;;;;;;;21.73;12.88;;;;;;;8.45;100.00;100643.13;5278434;28;20020;-75
2021/12/29 05:43:42;;;;;;;23.33;13.07;;;;;;;8.43;100.00;100647.78;5284559;28;20469;-75
2021/12/29 05:46:13;;;;;;;23.27;13.60;;;;;;;8.44;100.00;100654.00;5270562;28;20018;-75
2021/12/29 05:48:43;;;;;;;25.10;15.50;;;;;;;8.46;100.00;100646.63;5284301;28;20491;-75
2021/12/29 05:51:14;;;;;;;14.00;8.40;;;;;;;8.44;100.00;100643.28;5279594;28;20024;-74
2021/12/29 05:53:44;;;;;;;10.43;4.25;;;;;;;8.39;100.00;100646.44;5284626;28;20055;-74
2021/12/29 05:56:15;;;;;;;10.55;8.32;;;;;;;8.41;100.00;100644.44;5264090;28;20028;-75
2021/12/29 05:58:45;;;;;;;7.30;4.25;;;;;;;8.36;100.00;100646.72;5263770;28;20106;-75
2021/12/29 06:01:16;;;;;;;9.60;4.13;;;;;;;8.37;100.00;100631.53;5276924;28;20020;-75
2021/12/29 06:03:46;;;;;;;6.70;4.13;;;;;;;8.35;100.00;100630.84;5277920;28;20031;-75
2021/12/29 06:06:17;;;;;;;10.23;4.22;;;;;;;8.32;100.00;100629.28;5275204;28;20028;-75
2021/12/29 06:08:47;;;;;;;7.40;4.80;;;;;;;8.33;100.00;100628.28;5267792;28;20445;-75
2021/12/29 06:11:18;;;;;;;8.55;4.70;;;;;;;8.31;100.00;100632.97;5282787;28;20015;-75
2021/12/29 06:13:48;;;;;;;11.07;4.93;;;;;;;8.32;100.00;100634.63;5284089;28;20027;-74
2021/12/29 06:16:19;;;;;;;8.88;4.80;;;;;;;8.31;100.00;100647.16;5271997;28;20031;-75
2021/12/29 06:18:49;;;;;;;7.32;4.43;;;;;;;8.31;100.00;100641.00;5276382;28;20607;-75
2021/12/29 06:21:20;;;;;;;8.15;5.07;;;;;;;8.30;100.00;100647.34;5275914;28;20027;-76
2021/12/29 06:23:50;;;;;;;10.30;5.30;;;;;;;8.29;100.00;100645.66;5270379;28;20111;-75
2021/12/29 06:26:21;;;;;;;12.75;5.15;;;;;;;8.28;100.00;100647.50;5283104;27;20522;-74
2021/12/29 06:28:51;;;;;;;13.38;5.43;;;;;;;8.29;100.00;100653.69;5270242;28;20196;-75
2021/12/29 06:31:23;;;;;;;16.08;6.40;;;;;;;8.27;100.00;100671.69;5280653;28;20024;-75
2021/12/29 06:33:53;;;;;;;13.55;7.35;;;;;;;8.25;100.00;100682.53;5271473;28;20024;-75
2021/12/29 06:36:24;;;;;;;13.98;5.75;;;;;;;8.24;100.00;100680.03;5285530;28;20016;-75
2021/12/29 06:38:54;;;;;;;14.13;5.90;;;;;;;8.25;100.00;100679.88;5284474;28;20020;-75
2021/12/29 06:41:25;;;;;;;12.73;5.60;;;;;;;8.26;100.00;100678.03;5282648;28;20020;-74
2021/12/29 06:43:55;;;;;;;12.75;5.47;;;;;;;8.26;100.00;100678.88;5287615;28;20024;-75
2021/12/29 06:46:26;;;;;;;33.42;11.93;;;;;;;8.26;100.00;100686.88;5285983;28;20064;-75
2021/12/29 06:48:56;;;;;;;21.63;10.60;;;;;;;8.23;100.00;100689.91;5287681;27;20408;-74
2021/12/29 06:51:27;;;;;;;11.13;4.60;;;;;;;8.20;100.00;100695.53;5270804;27;20023;-74
2021/12/29 06:53:57;;;;;;;10.82;4.55;;;;;;;8.16;100.00;100698.66;5266573;28;20111;-74
2021/12/29 06:56:28;;;;;;;10.88;4.25;;;;;;;8.13;100.00;100701.63;5273986;28;20081;-73
2021/12/29 06:58:58;;;;;;;14.10;4.55;;;;;;;8.10;100.00;100688.59;5286209;28;20577;-73
2021/12/29 07:01:29;;;;;;;10.60;4.82;;;;;;;8.04;100.00;100693.56;5266412;28;20047;-74
2021/12/29 07:04:00;;;;;;;15.52;6.45;;;;;;;7.99;100.00;100690.53;5266843;28;20024;-73
2021/12/29 07:06:30;;;;;;;14.00;4.72;;;;;;;7.97;100.00;100688.97;5275456;28;20192;-74
2021/12/29 07:09:01;;;;;;;11.52;5.07;;;;;;;7.96;100.00;100687.31;5273441;27;20107;-74
2021/12/29 07:11:32;;;;;;;12.18;4.88;;;;;;;7.92;100.00;100685.94;5265422;28;20481;-74
2021/12/29 07:14:04;;;;;;;11.00;4.43;;;;;;;7.91;100.00;100690.44;5270941;28;20063;-73
2021/12/29 07:16:36;;;;;;;11.10;4.50;;;;;;;7.89;100.00;100689.75;5274152;28;20024;-73
2021/12/29 07:19:07;;;;;;;12.93;5.00;;;;;;;7.90;100.00;100682.56;5270842;28;20106;-74
2021/12/29 07:21:37;;;;;;;11.70;5.40;;;;;;;7.88;100.00;100693.44;5286177;28;20107;-74
2021/12/29 07:24:08;;;;;;;19.23;5.82;;;;;;;7.88;100.00;100688.09;5265591;28;20028;-74
2021/12/29 07:26:39;;;;;;;17.02;5.32;;;;;;;7.90;100.00;100685.25;5267052;28;20636;-74
2021/12/29 07:29:10;;;;;;;14.60;4.70;;;;;;;7.87;100.00;100699.72;5286679;28;20030;-73
2021/12/29 07:31:40;;;;;;;10.95;3.58;;;;;;;7.85;100.00;100704.41;5283425;28;20036;-74
2021/12/29 07:34:11;;;;;;;10.88;4.90;;;;;;;7.82;100.00;100709.19;5275428;28;20102;-74
2021/12/29 07:36:41;;;;;;;13.32;3.78;;;;;;;7.81;100.00;100719.03;5269128;28;20049;-74
2021/12/29 07:39:14;;;;;;;15.35;4.32;;;;;;;7.78;100.00;100730.00;5265357;28;20451;-74
2021/12/29 07:41:46;;;;;;;11.30;3.88;;;;;;;7.77;100.00;100723.84;5284713;28;20042;-73
2021/12/29 07:44:17;;;;;;;16.15;3.97;;;;;;;7.76;100.00;100730.19;5272824;28;20020;-74
2021/12/29 07:46:52;;;;;;;13.25;4.00;;;;;;;7.77;100.00;100726.50;5275409;27;20096;-74
2021/12/29 07:49:23;;;;;;;11.70;3.80;;;;;;;7.79;100.00;100726.38;5287736;27;20080;-74
2021/12/29 07:51:55;;;;;;;12.32;3.25;;;;;;;7.78;100.00;100719.34;5293527;27;20023;-74
2021/12/29 07:54:25;;;;;;;11.55;3.80;;;;;;;7.77;100.00;100713.16;5293713;27;20027;-74
2021/12/29 07:56:56;;;;;;;17.60;3.53;;;;;;;7.78;100.00;100719.34;5295555;27;20425;-73
2021/12/29 07:59:26;;;;;;;23.25;5.43;;;;;;;7.77;100.00;100715.81;5287848;27;20531;-74
2021/12/29 08:01:57;;;;;;;17.83;4.10;;;;;;;7.75;100.00;100719.66;5283308;27;20019;-74
2021/12/29 08:04:27;;;;;;;10.70;3.78;;;;;;;7.74;100.00;100717.97;5282966;28;20023;-73
2021/12/29 08:06:58;;;;;;;10.60;3.58;;;;;;;7.73;100.00;100722.50;5283346;28;20027;-74
2021/12/29 08:09:29;;;;;;;13.85;3.53;;;;;;;7.73;100.00;100721.63;5277695;27;20139;-74
2021/12/29 08:11:59;;;;;;;10.00;4.38;;;;;;;7.73;100.00;100718.94;5288248;27;20027;-74
2021/12/29 08:14:30;;;;;;;13.65;3.72;;;;;;;7.75;100.00;100722.31;5281301;27;20035;-74
2021/12/29 08:17:02;;;;;;;16.27;3.60;;;;;;;7.75;100.00;100728.50;5286578;27;20480;-74
2021/12/29 08:19:33;;;;;;;14.00;4.10;;;;;;;7.74;100.00;100732.16;5301025;27;20019;-74
2021/12/29 08:22:03;;;;;;;14.38;3.70;;;;;;;7.74;100.00;100726.00;5289238;27;20064;-74
2021/12/29 08:24:34;;;;;;;10.18;3.63;;;;;;;7.75;100.00;100735.69;5285927;27;20100;-74
2021/12/29 08:27:05;;;;;;;17.60;3.55;;;;;;;7.75;100.00;100735.69;5293418;27;20052;-74
2021/12/29 08:29:35;;;;;;;11.60;3.60;;;;;;;7.77;100.00;100733.69;5299007;27;20460;-74
2021/12/29 08:32:06;;;;;;;12.30;3.13;;;;;;;7.81;100.00;100726.22;5286600;27;20174;-74
2021/12/29 08:34:36;;;;;;;17.17;3.20;;;;;;;7.79;100.00;100721.03;5294012;27;20680;-74
2021/12/29 08:37:07;;;;;;;11.00;3.05;;;;;;;7.80;100.00;100728.06;5289227;27;20216;-74
2021/12/29 08:39:38;;;;;;;10.43;3.58;;;;;;;7.80;100.00;100728.06;5286752;27;20684;-74
2021/12/29 08:42:11;;;;;;;15.52;3.45;;;;;;;7.80;100.00;100725.38;5292853;27;20461;-74
2021/12/29 08:44:42;;;;;;;11.95;4.72;;;;;;;7.81;100.00;100734.22;5292213;27;20046;-74
2021/12/29 08:47:12;;;;;;;11.73;3.67;;;;;;;7.82;100.00;100734.06;5295555;27;20428;-74
2021/12/29 08:49:43;;;;;;;13.60;4.25;;;;;;;7.82;100.00;100728.72;5296125;27;20019;-74
2021/12/29 08:52:13;;;;;;;15.95;4.22;;;;;;;7.83;100.00;100721.56;5293525;27;20031;-74
2021/12/29 08:54:44;;;;;;;9.80;4.03;;;;;;;7.86;100.00;100724.78;5288492;27;20016;-74
2021/12/29 08:57:14;;;;;;;9.02;3.10;;;;;;;7.90;100.00;100731.50;5291016;27;20548;-74
2021/12/29 08:59:45;;;;;;;14.73;3.53;;;;;;;7.91;100.00;100721.66;5291262;27;20079;-74
2021/12/29 09:02:15;;;;;;;19.23;4.47;;;;;;;7.89;100.00;100715.63;5292958;27;20098;-74
2021/12/29 09:04:46;;;;;;;15.73;3.90;;;;;;;7.92;100.00;100705.47;5297324;27;20472;-74
2021/12/29 09:07:16;;;;;;;10.68;3.60;;;;;;;7.96;100.00;100714.03;5293592;27;20122;-74
2021/12/29 09:09:47;;;;;;;14.63;4.55;;;;;;;7.98;100.00;100707.53;5295074;27;20039;-74
2021/12/29 09:12:18;;;;;;;12.45;4.00;;;;;;;7.98;100.00;100715.56;5293357;27;20027;-74
2021/12/29 09:14:48;;;;;;;17.45;3.72;;;;;;;8.00;100.00;100708.22;5289510;27;20426;-74
2021/12/29 09:17:19;;;;;;;18.80;3.20;;;;;;;8.08;100.00;100702.09;5296614;27;20035;-74
2021/12/29 09:19:49;;;;;;;16.55;4.13;;;;;;;8.08;100.00;100703.94;5294259;27;20015;-74
2021/12/29 09:22:20;;;;;;;10.60;3.15;;;;;;;8.11;100.00;100695.63;5286286;27;20024;-74
2021/12/29 09:24:50;;;;;;;12.18;3.40;;;;;;;8.10;100.00;100701.97;5289771;28;20018;-74
2021/12/29 09:27:21;;;;;;;15.60;3.92;;;;;;;8.15;100.00;100689.81;5293087;28;20509;-74
2021/12/29 09:29:55;;;;;;;18.15;4.53;;;;;;;8.15;100.00;100687.16;5293268;27;20372;-74
2021/12/29 09:32:30;;;;;;;14.60;4.68;;;;;;;8.18;100.00;100675.28;5292084;28;20035;-74
2021/12/29 09:35:01;;;;;;;14.07;3.90;;;;;;;8.23;100.00;100676.53;5286605;27;20028;-74
2021/12/29 09:37:31;;;;;;;19.15;4.00;;;;;;;8.21;100.00;100683.84;5287786;28;20373;-74
2021/12/29 09:40:03;;;;;;;15.98;3.75;;;;;;;8.21;100.00;100681.16;5285977;28;20077;-74
2021/12/29 09:42:34;;;;;;;21.77;5.28;;;;;;;8.27;100.00;100675.19;5298648;28;20035;-74
2021/12/29 09:45:07;;;;;;;18.08;4.70;;;;;;;8.33;100.00;100679.09;5279407;27;20686;-74
2021/12/29 09:47:37;;;;;;;16.80;4.13;;;;;;;8.32;100.00;100675.56;5288276;28;20198;-74
2021/12/29 09:50:11;;;;;;;12.48;4.68;;;;;;;8.41;100.00;100681.03;5296646;28;20036;-74
2021/12/29 09:52:42;;;;;;;12.75;3.47;;;;;;;8.42;100.00;100693.38;5288937;27;20028;-74
2021/12/29 09:55:16;;;;;;;14.13;3.70;;;;;;;8.42;100.00;100686.19;5294524;28;20126;-74
2021/12/29 09:57:50;;;;;;;16.42;3.58;;;;;;;8.43;100.00;100679.84;5290540;27;20023;-74
2021/12/29 10:00:41;;;;;;;16.02;3.90;;;;;;;8.44;100.00;100665.50;5294797;28;20019;-74
2021/12/29 10:03:14;;;;;;;15.07;3.72;;;;;;;8.49;100.00;100654.34;5294855;28;20023;-74
2021/12/29 10:05:48;;;;;;;18.38;4.35;;;;;;;8.57;100.00;100654.38;5297683;27;20016;-74
2021/12/29 10:08:24;;;;;;;18.13;3.65;;;;;;;8.65;100.00;100645.59;5290974;27;20042;-75
2021/12/29 10:10:58;;;;;;;13.20;3.58;;;;;;;8.63;100.00;100659.09;5292057;27;20019;-74
2021/12/29 10:13:33;;;;;;;10.60;3.15;;;;;;;8.61;100.00;100654.91;5299898;27;20075;-74
2021/12/29 10:16:07;;;;;;;13.10;3.58;;;;;;;8.64;100.00;100676.84;5285512;27;20031;-74
2021/12/29 10:18:40;;;;;;;13.43;2.95;;;;;;;8.64;100.00;100684.88;5290942;27;20030;-74
2021/12/29 10:21:14;;;;;;;21.50;4.57;;;;;;;8.65;100.00;100683.88;5293567;27;20109;-74
2021/12/29 10:23:48;;;;;;;24.33;3.67;;;;;;;8.67;100.00;100667.66;5290093;27;20401;-74
2021/12/29 10:26:21;;;;;;;16.73;3.38;;;;;;;8.66;100.00;100672.16;5300259;27;20095;-74
2021/12/29 10:28:55;;;;;;;17.40;3.97;;;;;;;8.66;100.00;100663.31;5291209;27;20015;-74
2021/12/29 10:31:28;;;;;;;15.52;3.00;;;;;;;8.56;100.00;100664.25;5298558;27;20027;-74
2021/12/29 10:34:02;;;;;;;18.00;3.47;;;;;;;8.55;100.00;100659.91;5296082;27;20086;-74
2021/12/29 10:36:41;;;;;;;12.65;3.60;;;;;;;8.64;100.00;100646.59;5289731;27;20050;-74
2021/12/29 10:39:17;;;;;;;14.45;4.25;;;;;;;8.68;100.00;100646.09;5293692;27;20515;-74
2021/12/29 10:42:09;;;;;;;15.60;3.03;;;;;;;8.71;100.00;100639.59;5297210;27;20042;-74
2021/12/29 10:44:44;;;;;;;15.40;4.00;;;;;;;8.71;100.00;100639.59;5295738;27;20484;-74
2021/12/29 10:47:18;;;;;;;11.32;2.90;;;;;;;8.74;100.00;100640.13;5294788;27;20507;-74
2021/12/29 10:49:53;;;;;;;16.47;3.80;;;;;;;8.79;100.00;100653.03;5296406;27;20026;-74
2021/12/29 10:52:43;;;;;;;14.73;3.58;;;;;;;8.82;100.00;100652.69;5287356;27;20031;-74
2021/12/29 10:55:15;;;;;;;12.98;3.47;;;;;;;8.86;100.00;100638.00;5292337;27;20042;-74
2021/12/29 10:57:58;;;;;;;12.88;4.07;;;;;;;8.92;100.00;100626.66;5293319;27;20047;-74
2021/12/29 11:00:29;;;;;;;14.15;3.03;;;;;;;8.92;100.00;100618.63;5297837;27;20011;-74
2021/12/29 11:03:20;;;;;;;15.63;3.25;;;;;;;8.94;100.00;100624.66;5291507;27;20491;-74
2021/12/29 11:05:58;;;;;;;12.38;3.08;;;;;;;8.98;100.00;100620.66;5289407;27;20024;-74
2021/12/29 11:08:32;;;;;;;13.60;3.45;;;;;;;8.98;100.00;100619.81;5297013;27;20168;-74
2021/12/29 11:11:07;;;;;;;11.95;3.10;;;;;;;8.99;100.00;100617.00;5287072;27;20020;-74
2021/12/29 11:13:38;;;;;;;28.13;3.97;;;;;;;9.08;100.00;100629.38;5299248;27;20380;-74
2021/12/29 11:16:09;;;;;;;15.90;3.42;;;;;;;9.10;100.00;100639.13;5290329;27;20441;-74
2021/12/29 11:18:44;;;;;;;12.73;3.78;;;;;;;9.06;100.00;100646.63;5289181;27;20020;-74
2021/12/29 11:21:23;;;;;;;15.15;4.03;;;;;;;9.07;100.00;100633.06;5297719;27;20090;-74
2021/12/29 11:23:54;;;;;;;17.00;4.38;;;;;;;9.11;100.00;100635.44;5290072;27;20020;-74
2021/12/29 11:26:44;;;;;;;20.50;4.70;;;;;;;9.11;100.00;100630.91;5291280;27;20485;-74
2021/12/29 11:29:17;;;;;;;15.75;4.97;;;;;;;9.08;100.00;100633.91;5299152;27;20435;-73
2021/12/29 11:31:51;;;;;;;14.60;4.22;;;;;;;9.05;100.00;100627.03;5291225;27;20019;-73
2021/12/29 11:34:26;;;;;;;14.93;3.97;;;;;;;9.09;100.00;100635.59;5295614;27;20107;-73
2021/12/29 11:37:15;;;;;;;12.95;4.25;;;;;;;9.12;100.00;100627.22;5293810;27;20308;-73
2021/12/29 11:39:46;;;;;;;11.43;4.03;;;;;;;9.16;100.00;100627.75;5289079;27;20095;-73
2021/12/29 11:42:17;;;;;;;7.78;4.20;;;;;;;9.16;100.00;100619.72;5293825;27;20539;-73
2021/12/29 11:44:48;;;;;;;13.90;4.43;;;;;;;9.17;100.00;100614.19;5292091;27;20019;-73